BAW428 EGKK-EHAM
Flight info
| Callsign | BAW428 |
|---|---|
| Flight time | 0h 46m |
| Altitude | 27000 |
| Route | FRANE M604 GASBA M197 REDFA |
| Aircraft | A320/M-SDE3FGHIRWY/LB1 |
Departure
| Time | 2026-05-06 20:01 |
|---|---|
| Airport | London Gatwick Airport (EGKK) |
Arrival
| Time | 2026-05-06 20:47 |
|---|---|
| Airport | Amsterdam Airport Schiphol (EHAM) |
| Time | Latitude | Longitude | Altitude | Speed | Heading |
|---|---|---|---|---|---|
| 2026-05-06 19:41 | 51.15501 | -0.16838 | 205 ft | 0 kts | 346° |
| 2026-05-06 19:45 | 51.15500 | -0.16838 | 205 ft | 2 kts | 346° |
| 2026-05-06 19:45 | 51.15487 | -0.16831 | 217 ft | 0 kts | 341° |
| 2026-05-06 19:46 | 51.15472 | -0.16821 | 215 ft | 2 kts | 330° |
| 2026-05-06 19:46 | 51.15459 | -0.16806 | 217 ft | 2 kts | 306° |
| 2026-05-06 19:46 | 51.15453 | -0.16782 | 215 ft | 2 kts | 266° |
| 2026-05-06 19:47 | 51.15454 | -0.16766 | 213 ft | 0 kts | 256° |
| 2026-05-06 19:49 | 51.15454 | -0.16767 | 213 ft | 1 kts | 256° |
| 2026-05-06 19:49 | 51.15445 | -0.16823 | 209 ft | 8 kts | 257° |
| 2026-05-06 19:49 | 51.15434 | -0.16901 | 205 ft | 7 kts | 257° |
| 2026-05-06 19:50 | 51.15424 | -0.16977 | 205 ft | 8 kts | 257° |
| 2026-05-06 19:50 | 51.15409 | -0.17084 | 209 ft | 12 kts | 258° |
| 2026-05-06 19:50 | 51.15377 | -0.17221 | 205 ft | 15 kts | 251° |
| 2026-05-06 19:50 | 51.15324 | -0.17363 | 207 ft | 16 kts | 212° |
| 2026-05-06 19:51 | 51.15285 | -0.17528 | 211 ft | 18 kts | 256° |
| 2026-05-06 19:51 | 51.15256 | -0.17739 | 208 ft | 21 kts | 257° |
| 2026-05-06 19:51 | 51.15224 | -0.17977 | 209 ft | 22 kts | 257° |
| 2026-05-06 19:51 | 51.15190 | -0.18223 | 204 ft | 23 kts | 257° |
| 2026-05-06 19:52 | 51.15158 | -0.18485 | 210 ft | 25 kts | 257° |
| 2026-05-06 19:52 | 51.15125 | -0.18760 | 208 ft | 26 kts | 259° |
| 2026-05-06 19:52 | 51.15082 | -0.19045 | 210 ft | 27 kts | 258° |
| 2026-05-06 19:52 | 51.15046 | -0.19316 | 209 ft | 25 kts | 258° |
| 2026-05-06 19:53 | 51.15006 | -0.19593 | 207 ft | 26 kts | 257° |
| 2026-05-06 19:53 | 51.14966 | -0.19886 | 208 ft | 28 kts | 257° |
| 2026-05-06 19:53 | 51.14925 | -0.20197 | 206 ft | 29 kts | 257° |
| 2026-05-06 19:53 | 51.14877 | -0.20522 | 206 ft | 31 kts | 258° |
| 2026-05-06 19:54 | 51.14834 | -0.20851 | 207 ft | 24 kts | 258° |
| 2026-05-06 19:54 | 51.14799 | -0.21104 | 214 ft | 23 kts | 256° |
| 2026-05-06 19:54 | 51.14765 | -0.21287 | 210 ft | 15 kts | 258° |
| 2026-05-06 19:54 | 51.14717 | -0.21400 | 207 ft | 8 kts | 185° |
| 2026-05-06 19:55 | 51.14715 | -0.21400 | 206 ft | 0 kts | 182° |
| 2026-05-06 19:56 | 51.14712 | -0.21400 | 204 ft | 4 kts | 181° |
| 2026-05-06 19:57 | 51.14660 | -0.21358 | 214 ft | 13 kts | 136° |
| 2026-05-06 19:57 | 51.14619 | -0.21324 | 208 ft | 0 kts | 164° |
| 2026-05-06 19:58 | 51.14581 | -0.21307 | 204 ft | 8 kts | 161° |
| 2026-05-06 19:58 | 51.14525 | -0.21232 | 210 ft | 16 kts | 118° |
| 2026-05-06 19:58 | 51.14513 | -0.21164 | 212 ft | 0 kts | 82° |
| 2026-05-06 20:00 | 51.14523 | -0.21093 | 204 ft | 29 kts | 75° |
| 2026-05-06 20:00 | 51.14624 | -0.20362 | 212 ft | 102 kts | 77° |
| 2026-05-06 20:00 | 51.14817 | -0.18951 | 215 ft | 156 kts | 78° |
| 2026-05-06 20:00 | 51.15053 | -0.17243 | 772 ft | 158 kts | 77° |
| 2026-05-06 20:01 | 51.15282 | -0.15493 | 1418 ft | 167 kts | 76° |
| 2026-05-06 20:01 | 51.15517 | -0.13614 | 2026 ft | 177 kts | 75° |
| 2026-05-06 20:01 | 51.15791 | -0.11628 | 2444 ft | 191 kts | 75° |
| 2026-05-06 20:01 | 51.16098 | -0.09480 | 2835 ft | 207 kts | 75° |
| 2026-05-06 20:02 | 51.16432 | -0.07135 | 3217 ft | 227 kts | 75° |
| 2026-05-06 20:02 | 51.16790 | -0.04591 | 3704 ft | 244 kts | 77° |
| 2026-05-06 20:02 | 51.16880 | -0.01801 | 4256 ft | 261 kts | 90° |
| 2026-05-06 20:02 | 51.16825 | 0.01141 | 4863 ft | 271 kts | 91° |
| 2026-05-06 20:03 | 51.16766 | 0.04145 | 5012 ft | 271 kts | 91° |
| 2026-05-06 20:03 | 51.16685 | 0.07138 | 5053 ft | 271 kts | 91° |
| 2026-05-06 20:03 | 51.16606 | 0.10150 | 5099 ft | 271 kts | 90° |
| 2026-05-06 20:03 | 51.16956 | 0.13049 | 5320 ft | 268 kts | 62° |
| 2026-05-06 20:04 | 51.18121 | 0.15330 | 5685 ft | 268 kts | 37° |
| 2026-05-06 20:04 | 51.19657 | 0.17023 | 6049 ft | 269 kts | 32° |
| 2026-05-06 20:04 | 51.21248 | 0.18617 | 6419 ft | 271 kts | 31° |
| 2026-05-06 20:04 | 51.22856 | 0.20196 | 6768 ft | 272 kts | 31° |
| 2026-05-06 20:05 | 51.24472 | 0.21787 | 7121 ft | 274 kts | 31° |
| 2026-05-06 20:05 | 51.26094 | 0.23399 | 7475 ft | 275 kts | 31° |
| 2026-05-06 20:05 | 51.27724 | 0.25033 | 7830 ft | 277 kts | 31° |
| 2026-05-06 20:05 | 51.29355 | 0.26685 | 8193 ft | 279 kts | 31° |
| 2026-05-06 20:06 | 51.30439 | 0.27791 | 8430 ft | 280 kts | 31° |
| 2026-05-06 20:06 | 51.32085 | 0.29482 | 8762 ft | 282 kts | 31° |
| 2026-05-06 20:06 | 51.33738 | 0.31188 | 9134 ft | 284 kts | 31° |
| 2026-05-06 20:06 | 51.35400 | 0.32911 | 9507 ft | 286 kts | 31° |
| 2026-05-06 20:07 | 51.37072 | 0.34648 | 9887 ft | 288 kts | 31° |
| 2026-05-06 20:07 | 51.38776 | 0.36421 | 10231 ft | 300 kts | 31° |
| 2026-05-06 20:07 | 51.40580 | 0.38293 | 10584 ft | 318 kts | 31° |
| 2026-05-06 20:07 | 51.42488 | 0.40266 | 10958 ft | 334 kts | 31° |
| 2026-05-06 20:08 | 51.44487 | 0.42332 | 11315 ft | 349 kts | 31° |
| 2026-05-06 20:08 | 51.46558 | 0.44471 | 11668 ft | 356 kts | 31° |
| 2026-05-06 20:08 | 51.48647 | 0.46629 | 12035 ft | 358 kts | 31° |
| 2026-05-06 20:08 | 51.50744 | 0.48799 | 12393 ft | 359 kts | 31° |
| 2026-05-06 20:09 | 51.52853 | 0.50983 | 12764 ft | 361 kts | 31° |
| 2026-05-06 20:09 | 51.54948 | 0.53231 | 13139 ft | 363 kts | 37° |
| 2026-05-06 20:09 | 51.56622 | 0.56270 | 13514 ft | 368 kts | 58° |
| 2026-05-06 20:09 | 51.57541 | 0.60129 | 13889 ft | 373 kts | 78° |
| 2026-05-06 20:10 | 51.57936 | 0.64265 | 14223 ft | 376 kts | 81° |
| 2026-05-06 20:10 | 51.58280 | 0.68448 | 14573 ft | 378 kts | 81° |
| 2026-05-06 20:10 | 51.58624 | 0.72649 | 14909 ft | 381 kts | 82° |
| 2026-05-06 20:10 | 51.58972 | 0.76885 | 15011 ft | 382 kts | 82° |
| 2026-05-06 20:11 | 51.59320 | 0.81112 | 15181 ft | 382 kts | 82° |
| 2026-05-06 20:11 | 51.59672 | 0.85374 | 15674 ft | 386 kts | 82° |
| 2026-05-06 20:11 | 51.60029 | 0.89665 | 16189 ft | 389 kts | 82° |
| 2026-05-06 20:11 | 51.60393 | 0.94010 | 16710 ft | 393 kts | 82° |
| 2026-05-06 20:12 | 51.60762 | 0.98387 | 17240 ft | 397 kts | 82° |
| 2026-05-06 20:12 | 51.61136 | 1.02804 | 17778 ft | 401 kts | 82° |
| 2026-05-06 20:12 | 51.61516 | 1.07259 | 18319 ft | 404 kts | 81° |
| 2026-05-06 20:12 | 51.62199 | 1.11651 | 18800 ft | 406 kts | 66° |
| 2026-05-06 20:13 | 51.63536 | 1.15652 | 19287 ft | 408 kts | 58° |
| 2026-05-06 20:13 | 51.64990 | 1.19598 | 19763 ft | 411 kts | 58° |
| 2026-05-06 20:13 | 51.66458 | 1.23568 | 20233 ft | 414 kts | 58° |
| 2026-05-06 20:13 | 51.67940 | 1.27570 | 20705 ft | 417 kts | 58° |
| 2026-05-06 20:14 | 51.69431 | 1.31605 | 21156 ft | 420 kts | 58° |
| 2026-05-06 20:14 | 51.70964 | 1.35635 | 21600 ft | 423 kts | 53° |
| 2026-05-06 20:14 | 51.73003 | 1.39008 | 22063 ft | 421 kts | 34° |
| 2026-05-06 20:14 | 51.75555 | 1.41326 | 22479 ft | 422 kts | 23° |
| 2026-05-06 20:15 | 51.78222 | 1.43333 | 22854 ft | 426 kts | 25° |
| 2026-05-06 20:15 | 51.80692 | 1.45989 | 22999 ft | 430 kts | 42° |
| 2026-05-06 20:15 | 51.82571 | 1.49744 | 23014 ft | 432 kts | 60° |
| 2026-05-06 20:15 | 51.83585 | 1.54242 | 23016 ft | 434 kts | 77° |
| 2026-05-06 20:16 | 51.84233 | 1.59015 | 23014 ft | 435 kts | 77° |
| 2026-05-06 20:16 | 51.84879 | 1.63788 | 23011 ft | 435 kts | 77° |
| 2026-05-06 20:16 | 51.85527 | 1.68574 | 23014 ft | 435 kts | 77° |
| 2026-05-06 20:16 | 51.86174 | 1.73354 | 23013 ft | 435 kts | 77° |
| 2026-05-06 20:17 | 51.86837 | 1.78127 | 23012 ft | 435 kts | 74° |
| 2026-05-06 20:17 | 51.87970 | 1.82643 | 23012 ft | 434 kts | 59° |
| 2026-05-06 20:17 | 51.89524 | 1.86824 | 23015 ft | 434 kts | 58° |
| 2026-05-06 20:17 | 51.91056 | 1.91032 | 23010 ft | 434 kts | 59° |
| 2026-05-06 20:18 | 51.92567 | 1.95275 | 23006 ft | 434 kts | 59° |
| 2026-05-06 20:18 | 51.94062 | 1.99516 | 23007 ft | 434 kts | 59° |
| 2026-05-06 20:18 | 51.95560 | 2.03770 | 23008 ft | 434 kts | 59° |
| 2026-05-06 20:18 | 51.97058 | 2.08024 | 23010 ft | 434 kts | 59° |
| 2026-05-06 20:19 | 51.98564 | 2.12280 | 23008 ft | 435 kts | 59° |
| 2026-05-06 20:19 | 52.00076 | 2.16528 | 23006 ft | 435 kts | 59° |
| 2026-05-06 20:19 | 52.01590 | 2.20775 | 23012 ft | 435 kts | 59° |
| 2026-05-06 20:19 | 52.03102 | 2.25037 | 23008 ft | 435 kts | 59° |
| 2026-05-06 20:20 | 52.04604 | 2.29288 | 23003 ft | 430 kts | 59° |
| 2026-05-06 20:20 | 52.06059 | 2.33422 | 22811 ft | 416 kts | 59° |
| 2026-05-06 20:20 | 52.07522 | 2.37578 | 22566 ft | 433 kts | 59° |
| 2026-05-06 20:20 | 52.09033 | 2.41875 | 22437 ft | 440 kts | 59° |
| 2026-05-06 20:21 | 52.10553 | 2.46203 | 22304 ft | 441 kts | 59° |
| 2026-05-06 20:21 | 52.12063 | 2.50510 | 21856 ft | 436 kts | 59° |
| 2026-05-06 20:21 | 52.13579 | 2.54755 | 21404 ft | 433 kts | 58° |
| 2026-05-06 20:21 | 52.15110 | 2.58966 | 20974 ft | 430 kts | 58° |
| 2026-05-06 20:22 | 52.16638 | 2.63141 | 20565 ft | 428 kts | 58° |
| 2026-05-06 20:22 | 52.18161 | 2.67291 | 20159 ft | 425 kts | 58° |
| 2026-05-06 20:22 | 52.19669 | 2.71422 | 19764 ft | 423 kts | 58° |
| 2026-05-06 20:22 | 52.21160 | 2.75539 | 19370 ft | 420 kts | 58° |
| 2026-05-06 20:23 | 52.22636 | 2.79637 | 18987 ft | 418 kts | 58° |
| 2026-05-06 20:23 | 52.24095 | 2.83715 | 18599 ft | 415 kts | 58° |
| 2026-05-06 20:23 | 52.25545 | 2.87776 | 18204 ft | 413 kts | 58° |
| 2026-05-06 20:23 | 52.26989 | 2.91819 | 17773 ft | 410 kts | 58° |
| 2026-05-06 20:24 | 52.28423 | 2.95834 | 17335 ft | 408 kts | 58° |
| 2026-05-06 20:24 | 52.29846 | 2.99821 | 16908 ft | 405 kts | 58° |
| 2026-05-06 20:24 | 52.31261 | 3.03783 | 16501 ft | 402 kts | 58° |
| 2026-05-06 20:24 | 52.32664 | 3.07723 | 16075 ft | 400 kts | 58° |
| 2026-05-06 20:25 | 52.34054 | 3.11641 | 15668 ft | 397 kts | 58° |
| 2026-05-06 20:25 | 52.35434 | 3.15537 | 15265 ft | 395 kts | 59° |
| 2026-05-06 20:25 | 52.36801 | 3.19404 | 14869 ft | 392 kts | 58° |
| 2026-05-06 20:25 | 52.38160 | 3.23258 | 14476 ft | 389 kts | 59° |
| 2026-05-06 20:26 | 52.39507 | 3.27083 | 14089 ft | 387 kts | 58° |
| 2026-05-06 20:26 | 52.40844 | 3.30886 | 13694 ft | 384 kts | 58° |
| 2026-05-06 20:26 | 52.42174 | 3.34660 | 13255 ft | 380 kts | 58° |
| 2026-05-06 20:26 | 52.43491 | 3.38397 | 12833 ft | 378 kts | 59° |
| 2026-05-06 20:27 | 52.44663 | 3.42233 | 12411 ft | 375 kts | 68° |
| 2026-05-06 20:27 | 52.45412 | 3.46311 | 11998 ft | 373 kts | 76° |
| 2026-05-06 20:27 | 52.45995 | 3.50442 | 11587 ft | 370 kts | 76° |
| 2026-05-06 20:27 | 52.46578 | 3.54541 | 11184 ft | 367 kts | 76° |
| 2026-05-06 20:28 | 52.47149 | 3.58546 | 10790 ft | 364 kts | 76° |
| 2026-05-06 20:28 | 52.47726 | 3.62572 | 10397 ft | 361 kts | 76° |
| 2026-05-06 20:28 | 52.48299 | 3.66570 | 10009 ft | 358 kts | 76° |
| 2026-05-06 20:28 | 52.48861 | 3.70497 | 9650 ft | 349 kts | 76° |
| 2026-05-06 20:29 | 52.49410 | 3.74366 | 9296 ft | 339 kts | 76° |
| 2026-05-06 20:29 | 52.49932 | 3.78080 | 8959 ft | 329 kts | 76° |
| 2026-05-06 20:29 | 52.50430 | 3.81637 | 8938 ft | 311 kts | 76° |
| 2026-05-06 20:29 | 52.50894 | 3.84997 | 8940 ft | 293 kts | 78° |
| 2026-05-06 20:30 | 52.50891 | 3.88228 | 8943 ft | 283 kts | 104° |
| 2026-05-06 20:30 | 52.48758 | 3.93581 | 8707 ft | 285 kts | 132° |
| 2026-05-06 20:30 | 52.47364 | 3.95881 | 8495 ft | 283 kts | 135° |
| 2026-05-06 20:31 | 52.45923 | 3.98144 | 8283 ft | 283 kts | 135° |
| 2026-05-06 20:31 | 52.44517 | 4.00323 | 8079 ft | 282 kts | 135° |
| 2026-05-06 20:31 | 52.43093 | 4.02518 | 7871 ft | 281 kts | 135° |
| 2026-05-06 20:31 | 52.41669 | 4.04700 | 7669 ft | 280 kts | 135° |
| 2026-05-06 20:32 | 52.40153 | 4.06684 | 7467 ft | 279 kts | 143° |
| 2026-05-06 20:32 | 52.38468 | 4.08257 | 7257 ft | 279 kts | 153° |
| 2026-05-06 20:32 | 52.36701 | 4.09573 | 7077 ft | 279 kts | 154° |
| 2026-05-06 20:32 | 52.34925 | 4.10854 | 6903 ft | 278 kts | 154° |
| 2026-05-06 20:33 | 52.33155 | 4.12116 | 6728 ft | 277 kts | 154° |
| 2026-05-06 20:33 | 52.31387 | 4.13368 | 6561 ft | 277 kts | 154° |
| 2026-05-06 20:33 | 52.29623 | 4.14607 | 6384 ft | 275 kts | 154° |
| 2026-05-06 20:33 | 52.27866 | 4.15839 | 6196 ft | 275 kts | 154° |
| 2026-05-06 20:34 | 52.26106 | 4.17073 | 6013 ft | 275 kts | 155° |
| 2026-05-06 20:34 | 52.24349 | 4.18305 | 5800 ft | 272 kts | 154° |
| 2026-05-06 20:34 | 52.22640 | 4.19509 | 5560 ft | 263 kts | 152° |
| 2026-05-06 20:34 | 52.21204 | 4.21192 | 5343 ft | 249 kts | 134° |
| 2026-05-06 20:35 | 52.19973 | 4.23154 | 5142 ft | 246 kts | 132° |
| 2026-05-06 20:35 | 52.18790 | 4.25105 | 4937 ft | 239 kts | 131° |
| 2026-05-06 20:35 | 52.17636 | 4.26995 | 4733 ft | 232 kts | 131° |
| 2026-05-06 20:35 | 52.16509 | 4.28841 | 4517 ft | 227 kts | 131° |
| 2026-05-06 20:36 | 52.15410 | 4.30635 | 4312 ft | 221 kts | 132° |
| 2026-05-06 20:36 | 52.14334 | 4.32381 | 4102 ft | 215 kts | 131° |
| 2026-05-06 20:36 | 52.13306 | 4.34121 | 3895 ft | 211 kts | 129° |
| 2026-05-06 20:36 | 52.12315 | 4.35836 | 3688 ft | 204 kts | 129° |
| 2026-05-06 20:37 | 52.11357 | 4.37487 | 3486 ft | 198 kts | 130° |
| 2026-05-06 20:37 | 52.10399 | 4.39131 | 3286 ft | 203 kts | 130° |
| 2026-05-06 20:37 | 52.09503 | 4.40868 | 3084 ft | 198 kts | 111° |
| 2026-05-06 20:37 | 52.09213 | 4.42991 | 2985 ft | 193 kts | 83° |
| 2026-05-06 20:38 | 52.09601 | 4.45036 | 2968 ft | 191 kts | 62° |
| 2026-05-06 20:38 | 52.10182 | 4.46978 | 2972 ft | 190 kts | 62° |
| 2026-05-06 20:38 | 52.10754 | 4.48915 | 2969 ft | 187 kts | 63° |
| 2026-05-06 20:38 | 52.11308 | 4.50810 | 2971 ft | 185 kts | 63° |
| 2026-05-06 20:39 | 52.11863 | 4.52716 | 2973 ft | 186 kts | 63° |
| 2026-05-06 20:39 | 52.12413 | 4.54612 | 2974 ft | 186 kts | 63° |
| 2026-05-06 20:39 | 52.12967 | 4.56518 | 2973 ft | 187 kts | 63° |
| 2026-05-06 20:39 | 52.13521 | 4.58420 | 2972 ft | 186 kts | 63° |
| 2026-05-06 20:40 | 52.14076 | 4.60328 | 2973 ft | 186 kts | 63° |
| 2026-05-06 20:40 | 52.14629 | 4.62233 | 2971 ft | 187 kts | 63° |
| 2026-05-06 20:40 | 52.15183 | 4.64140 | 2972 ft | 186 kts | 64° |
| 2026-05-06 20:40 | 52.15732 | 4.66038 | 3002 ft | 181 kts | 63° |
| 2026-05-06 20:41 | 52.16226 | 4.67740 | 2973 ft | 162 kts | 64° |
| 2026-05-06 20:41 | 52.16672 | 4.69280 | 2902 ft | 149 kts | 63° |
| 2026-05-06 20:41 | 52.17104 | 4.70772 | 2777 ft | 143 kts | 63° |
| 2026-05-06 20:41 | 52.17515 | 4.72195 | 2600 ft | 135 kts | 63° |
| 2026-05-06 20:42 | 52.17915 | 4.73577 | 2425 ft | 134 kts | 63° |
| 2026-05-06 20:42 | 52.18342 | 4.74957 | 2194 ft | 139 kts | 54° |
| 2026-05-06 20:42 | 52.19007 | 4.76094 | 1958 ft | 139 kts | 36° |
| 2026-05-06 20:42 | 52.19859 | 4.76763 | 1751 ft | 139 kts | 11° |
| 2026-05-06 20:43 | 52.20845 | 4.76874 | 1634 ft | 140 kts | 8° |
| 2026-05-06 20:43 | 52.21816 | 4.77015 | 1471 ft | 140 kts | 7° |
| 2026-05-06 20:43 | 52.22742 | 4.77123 | 1301 ft | 130 kts | 7° |
| 2026-05-06 20:43 | 52.23636 | 4.77217 | 1126 ft | 127 kts | 6° |
| 2026-05-06 20:44 | 52.23882 | 4.77242 | 1080 ft | 127 kts | 7° |
| 2026-05-06 20:45 | 52.24436 | 4.77297 | 968 ft | 126 kts | 6° |
| 2026-05-06 20:45 | 52.25315 | 4.77383 | 784 ft | 128 kts | 6° |
| 2026-05-06 20:45 | 52.26204 | 4.77466 | 615 ft | 128 kts | 3° |
| 2026-05-06 20:45 | 52.27088 | 4.77550 | 459 ft | 127 kts | 4° |
| 2026-05-06 20:46 | 52.27986 | 4.77628 | 285 ft | 129 kts | 4° |
| 2026-05-06 20:46 | 52.28876 | 4.77710 | 70 ft | 127 kts | 4° |
| 2026-05-06 20:46 | 52.29737 | 4.77798 | -6 ft | 112 kts | 5° |
| 2026-05-06 20:46 | 52.30358 | 4.77860 | 2 ft | 59 kts | 5° |
| 2026-05-06 20:47 | 52.30672 | 4.77893 | -2 ft | 41 kts | 4° |
| 2026-05-06 20:47 | 52.30916 | 4.77843 | -7 ft | 33 kts | 332° |
| 2026-05-06 20:47 | 52.31016 | 4.77757 | -5 ft | 0 kts | 334° |
| 2026-05-06 20:47 | 52.31018 | 4.77756 | -5 ft | 1 kts | 334° |
| 2026-05-06 20:48 | 52.31030 | 4.77746 | -4 ft | 5 kts | 334° |
| 2026-05-06 20:48 | 52.31078 | 4.77708 | -3 ft | 10 kts | 334° |
| 2026-05-06 20:48 | 52.31141 | 4.77632 | -3 ft | 13 kts | 306° |
| 2026-05-06 20:48 | 52.31124 | 4.77505 | -3 ft | 13 kts | 205° |
| 2026-05-06 20:49 | 52.31082 | 4.77407 | -3 ft | 10 kts | 264° |
| 2026-05-06 20:49 | 52.31102 | 4.77329 | -2 ft | 6 kts | 342° |
| 2026-05-06 20:49 | 52.31145 | 4.77327 | -2 ft | 0 kts | 4° |